EIFXX ZKPY-ZYTL
Flight info
| Callsign | EIFXX |
|---|---|
| Flight time | 0h 43m |
| Altitude | 30000 |
| Route | N0460F300 SASRI Y631 PONIL M443 TOMUK B332 SANKO W579 RUPID |
| Aircraft | B738/M-Q/L |
Departure
| Time | 2026-04-21 09:08 |
|---|---|
| Airport | Pyongyang Sunan International Airport (ZKPY) |
Arrival
| Time | 2026-04-21 09:52 |
|---|---|
| Airport | Dalian Zhoushuizi International Airport (ZYTL) |
| Time | Latitude | Longitude | Altitude | Speed | Heading |
|---|---|---|---|---|---|
| 2026-04-21 08:55 | 39.20137 | 125.67529 | 86 ft | 0 kts | 73° |
| 2026-04-21 09:01 | 39.20135 | 125.67519 | 86 ft | 2 kts | 68° |
| 2026-04-21 09:01 | 39.20128 | 125.67499 | 83 ft | 2 kts | 60° |
| 2026-04-21 09:01 | 39.20119 | 125.67482 | 89 ft | 2 kts | 43° |
| 2026-04-21 09:01 | 39.20105 | 125.67470 | 89 ft | 2 kts | 15° |
| 2026-04-21 09:02 | 39.20089 | 125.67468 | 87 ft | 2 kts | 352° |
| 2026-04-21 09:02 | 39.20078 | 125.67471 | 90 ft | 1 kts | 345° |
| 2026-04-21 09:02 | 39.20077 | 125.67471 | 87 ft | 0 kts | 345° |
| 2026-04-21 09:04 | 39.20083 | 125.67469 | 89 ft | 3 kts | 345° |
| 2026-04-21 09:04 | 39.20131 | 125.67451 | 89 ft | 12 kts | 344° |
| 2026-04-21 09:04 | 39.20239 | 125.67405 | 87 ft | 19 kts | 343° |
| 2026-04-21 09:05 | 39.20375 | 125.67351 | 89 ft | 22 kts | 343° |
| 2026-04-21 09:05 | 39.20522 | 125.67294 | 89 ft | 22 kts | 343° |
| 2026-04-21 09:05 | 39.20662 | 125.67240 | 86 ft | 21 kts | 342° |
| 2026-04-21 09:05 | 39.20800 | 125.67183 | 87 ft | 20 kts | 342° |
| 2026-04-21 09:06 | 39.20933 | 125.67132 | 88 ft | 20 kts | 343° |
| 2026-04-21 09:06 | 39.21064 | 125.67080 | 86 ft | 19 kts | 342° |
| 2026-04-21 09:06 | 39.21188 | 125.67031 | 88 ft | 18 kts | 345° |
| 2026-04-21 09:06 | 39.21312 | 125.66983 | 89 ft | 19 kts | 342° |
| 2026-04-21 09:07 | 39.21435 | 125.66933 | 86 ft | 14 kts | 343° |
| 2026-04-21 09:07 | 39.21485 | 125.66848 | 88 ft | 12 kts | 256° |
| 2026-04-21 09:07 | 39.21415 | 125.66791 | 89 ft | 12 kts | 197° |
| 2026-04-21 09:07 | 39.21334 | 125.66761 | 88 ft | 12 kts | 195° |
| 2026-04-21 09:08 | 39.21229 | 125.66760 | 87 ft | 30 kts | 169° |
| 2026-04-21 09:08 | 39.20721 | 125.66948 | 86 ft | 120 kts | 167° |
| 2026-04-21 09:08 | 39.19735 | 125.67398 | 447 ft | 165 kts | 162° |
| 2026-04-21 09:08 | 39.18652 | 125.67976 | 1498 ft | 174 kts | 172° |
| 2026-04-21 09:09 | 39.17398 | 125.68437 | 2043 ft | 194 kts | 175° |
| 2026-04-21 09:09 | 39.16028 | 125.68897 | 2570 ft | 211 kts | 176° |
| 2026-04-21 09:09 | 39.14568 | 125.69402 | 3125 ft | 224 kts | 175° |
| 2026-04-21 09:09 | 39.13003 | 125.69950 | 3671 ft | 239 kts | 174° |
| 2026-04-21 09:10 | 39.11345 | 125.70574 | 4196 ft | 254 kts | 174° |
| 2026-04-21 09:10 | 39.09658 | 125.70631 | 4714 ft | 240 kts | 205° |
| 2026-04-21 09:10 | 39.08260 | 125.69570 | 5273 ft | 229 kts | 231° |
| 2026-04-21 09:10 | 39.07381 | 125.67907 | 5808 ft | 229 kts | 250° |
| 2026-04-21 09:11 | 39.06856 | 125.65954 | 6370 ft | 233 kts | 255° |
| 2026-04-21 09:11 | 39.06398 | 125.63947 | 6878 ft | 235 kts | 256° |
| 2026-04-21 09:11 | 39.05942 | 125.61929 | 7400 ft | 236 kts | 257° |
| 2026-04-21 09:11 | 39.05581 | 125.59852 | 7918 ft | 237 kts | 261° |
| 2026-04-21 09:12 | 39.05283 | 125.57767 | 8463 ft | 238 kts | 262° |
| 2026-04-21 09:12 | 39.04986 | 125.55661 | 9001 ft | 238 kts | 262° |
| 2026-04-21 09:12 | 39.04688 | 125.53577 | 9554 ft | 240 kts | 262° |
| 2026-04-21 09:12 | 39.04380 | 125.51446 | 10103 ft | 244 kts | 262° |
| 2026-04-21 09:13 | 39.04060 | 125.49269 | 10615 ft | 247 kts | 262° |
| 2026-04-21 09:13 | 39.03733 | 125.47057 | 11095 ft | 264 kts | 262° |
| 2026-04-21 09:13 | 39.03372 | 125.44621 | 11295 ft | 291 kts | 262° |
| 2026-04-21 09:13 | 39.02975 | 125.41958 | 11491 ft | 317 kts | 262° |
| 2026-04-21 09:14 | 39.02563 | 125.39039 | 11718 ft | 338 kts | 264° |
| 2026-04-21 09:14 | 39.02331 | 125.36007 | 12329 ft | 346 kts | 267° |
| 2026-04-21 09:14 | 39.02137 | 125.32898 | 13134 ft | 349 kts | 267° |
| 2026-04-21 09:14 | 39.01948 | 125.29764 | 13954 ft | 352 kts | 267° |
| 2026-04-21 09:15 | 39.01756 | 125.26652 | 14675 ft | 354 kts | 267° |
| 2026-04-21 09:15 | 39.01556 | 125.23486 | 15409 ft | 355 kts | 267° |
| 2026-04-21 09:15 | 39.01350 | 125.20293 | 16120 ft | 358 kts | 267° |
| 2026-04-21 09:15 | 39.01140 | 125.17087 | 16808 ft | 360 kts | 267° |
| 2026-04-21 09:16 | 39.00929 | 125.13880 | 17492 ft | 363 kts | 267° |
| 2026-04-21 09:16 | 39.00713 | 125.10632 | 18167 ft | 366 kts | 267° |
| 2026-04-21 09:16 | 39.00494 | 125.07344 | 18749 ft | 368 kts | 268° |
| 2026-04-21 09:16 | 39.00275 | 125.04078 | 19347 ft | 369 kts | 268° |
| 2026-04-21 09:17 | 39.00053 | 125.00761 | 19949 ft | 370 kts | 268° |
| 2026-04-21 09:17 | 38.99967 | 124.97470 | 20507 ft | 371 kts | 272° |
| 2026-04-21 09:17 | 38.99975 | 124.94121 | 21056 ft | 373 kts | 272° |
| 2026-04-21 09:17 | 38.99998 | 124.90821 | 21592 ft | 375 kts | 273° |
| 2026-04-21 09:18 | 39.00022 | 124.87451 | 22123 ft | 376 kts | 273° |
| 2026-04-21 09:18 | 39.00043 | 124.84073 | 22633 ft | 378 kts | 273° |
| 2026-04-21 09:18 | 39.00059 | 124.80681 | 23121 ft | 380 kts | 273° |
| 2026-04-21 09:18 | 39.00072 | 124.77253 | 23589 ft | 382 kts | 273° |
| 2026-04-21 09:19 | 39.00081 | 124.73832 | 23994 ft | 384 kts | 273° |
| 2026-04-21 09:19 | 39.00088 | 124.70393 | 24403 ft | 384 kts | 272° |
| 2026-04-21 09:19 | 39.00094 | 124.66958 | 24816 ft | 385 kts | 272° |
| 2026-04-21 09:19 | 39.00098 | 124.63489 | 25217 ft | 386 kts | 272° |
| 2026-04-21 09:20 | 39.00101 | 124.60054 | 25596 ft | 387 kts | 272° |
| 2026-04-21 09:20 | 39.00104 | 124.56588 | 25958 ft | 388 kts | 272° |
| 2026-04-21 09:20 | 39.00105 | 124.53107 | 26327 ft | 388 kts | 271° |
| 2026-04-21 09:20 | 39.00105 | 124.49675 | 26766 ft | 387 kts | 271° |
| 2026-04-21 09:21 | 39.00104 | 124.46237 | 27324 ft | 383 kts | 271° |
| 2026-04-21 09:21 | 39.00102 | 124.42817 | 27931 ft | 378 kts | 271° |
| 2026-04-21 09:21 | 39.00099 | 124.39462 | 28511 ft | 374 kts | 271° |
| 2026-04-21 09:21 | 39.00096 | 124.36118 | 29042 ft | 371 kts | 271° |
| 2026-04-21 09:22 | 39.00092 | 124.32796 | 29593 ft | 369 kts | 270° |
| 2026-04-21 09:22 | 39.00087 | 124.29546 | 29996 ft | 368 kts | 270° |
| 2026-04-21 09:22 | 39.00074 | 124.22854 | 29998 ft | 377 kts | 270° |
| 2026-04-21 09:23 | 39.00057 | 124.16052 | 30018 ft | 385 kts | 270° |
| 2026-04-21 09:23 | 39.00035 | 124.09149 | 30005 ft | 388 kts | 270° |
| 2026-04-21 09:24 | 39.00009 | 124.02188 | 30005 ft | 388 kts | 270° |
| 2026-04-21 09:24 | 39.00003 | 123.95260 | 30005 ft | 389 kts | 271° |
| 2026-04-21 09:25 | 39.00027 | 123.89438 | 30002 ft | 389 kts | 271° |
| 2026-04-21 09:25 | 39.00056 | 123.82459 | 29997 ft | 388 kts | 271° |
| 2026-04-21 09:26 | 39.00076 | 123.75623 | 29996 ft | 381 kts | 270° |
| 2026-04-21 09:26 | 39.00089 | 123.68769 | 29568 ft | 387 kts | 271° |
| 2026-04-21 09:27 | 39.00095 | 123.65322 | 28781 ft | 386 kts | 271° |
| 2026-04-21 09:27 | 39.00099 | 123.61871 | 27848 ft | 385 kts | 271° |
| 2026-04-21 09:27 | 39.00102 | 123.58415 | 26572 ft | 392 kts | 271° |
| 2026-04-21 09:27 | 39.00104 | 123.54844 | 25254 ft | 401 kts | 272° |
| 2026-04-21 09:28 | 39.00106 | 123.51247 | 24139 ft | 406 kts | 272° |
| 2026-04-21 09:28 | 39.00106 | 123.47620 | 23186 ft | 405 kts | 272° |
| 2026-04-21 09:28 | 39.00104 | 123.44012 | 22375 ft | 399 kts | 272° |
| 2026-04-21 09:28 | 39.00100 | 123.40507 | 21708 ft | 392 kts | 272° |
| 2026-04-21 09:29 | 39.00096 | 123.37041 | 21074 ft | 384 kts | 272° |
| 2026-04-21 09:29 | 39.00091 | 123.33629 | 20447 ft | 378 kts | 272° |
| 2026-04-21 09:29 | 39.00086 | 123.30230 | 19825 ft | 373 kts | 272° |
| 2026-04-21 09:29 | 39.00080 | 123.26913 | 19211 ft | 370 kts | 272° |
| 2026-04-21 09:30 | 39.00074 | 123.23616 | 18584 ft | 368 kts | 272° |
| 2026-04-21 09:30 | 39.00067 | 123.20366 | 17930 ft | 367 kts | 272° |
| 2026-04-21 09:30 | 39.00060 | 123.17008 | 17283 ft | 377 kts | 271° |
| 2026-04-21 09:30 | 39.00051 | 123.13625 | 16634 ft | 380 kts | 271° |
| 2026-04-21 09:31 | 39.00039 | 123.10252 | 15991 ft | 374 kts | 271° |
| 2026-04-21 09:31 | 39.00027 | 123.06930 | 15369 ft | 368 kts | 271° |
| 2026-04-21 09:31 | 39.00014 | 123.03661 | 14713 ft | 364 kts | 271° |
| 2026-04-21 09:31 | 38.99982 | 123.00434 | 14293 ft | 359 kts | 269° |
| 2026-04-21 09:32 | 38.99679 | 122.97222 | 13764 ft | 369 kts | 262° |
| 2026-04-21 09:32 | 38.99203 | 122.93948 | 13268 ft | 373 kts | 261° |
| 2026-04-21 09:32 | 38.98720 | 122.90689 | 12853 ft | 370 kts | 261° |
| 2026-04-21 09:32 | 38.98242 | 122.87450 | 12452 ft | 360 kts | 261° |
| 2026-04-21 09:33 | 38.97791 | 122.84370 | 12081 ft | 349 kts | 262° |
| 2026-04-21 09:33 | 38.97349 | 122.81325 | 11726 ft | 339 kts | 262° |
| 2026-04-21 09:33 | 38.96924 | 122.78377 | 11385 ft | 330 kts | 262° |
| 2026-04-21 09:33 | 38.96511 | 122.75506 | 11051 ft | 323 kts | 262° |
| 2026-04-21 09:34 | 38.96112 | 122.72725 | 10746 ft | 316 kts | 262° |
| 2026-04-21 09:34 | 38.95714 | 122.69957 | 10430 ft | 309 kts | 262° |
| 2026-04-21 09:34 | 38.95331 | 122.67292 | 10131 ft | 304 kts | 262° |
| 2026-04-21 09:34 | 38.94947 | 122.64628 | 9981 ft | 293 kts | 262° |
| 2026-04-21 09:35 | 38.94586 | 122.62134 | 9968 ft | 279 kts | 262° |
| 2026-04-21 09:35 | 38.94240 | 122.59744 | 9923 ft | 267 kts | 262° |
| 2026-04-21 09:35 | 38.93904 | 122.57422 | 9768 ft | 259 kts | 262° |
| 2026-04-21 09:35 | 38.93577 | 122.55156 | 9473 ft | 257 kts | 262° |
| 2026-04-21 09:36 | 38.93253 | 122.52919 | 9174 ft | 256 kts | 261° |
| 2026-04-21 09:36 | 38.92924 | 122.50654 | 8882 ft | 254 kts | 261° |
| 2026-04-21 09:36 | 38.92606 | 122.48462 | 8598 ft | 252 kts | 261° |
| 2026-04-21 09:36 | 38.92283 | 122.46247 | 8303 ft | 251 kts | 261° |
| 2026-04-21 09:37 | 38.91962 | 122.44047 | 8047 ft | 249 kts | 261° |
| 2026-04-21 09:37 | 38.91645 | 122.41873 | 7768 ft | 247 kts | 261° |
| 2026-04-21 09:37 | 38.91329 | 122.39712 | 7498 ft | 245 kts | 261° |
| 2026-04-21 09:37 | 38.91013 | 122.37559 | 7211 ft | 244 kts | 260° |
| 2026-04-21 09:38 | 38.90700 | 122.35425 | 6960 ft | 241 kts | 260° |
| 2026-04-21 09:38 | 38.90394 | 122.33328 | 6694 ft | 240 kts | 261° |
| 2026-04-21 09:38 | 38.90340 | 122.31187 | 6410 ft | 239 kts | 273° |
| 2026-04-21 09:38 | 38.90510 | 122.29061 | 6128 ft | 238 kts | 275° |
| 2026-04-21 09:39 | 38.90707 | 122.26974 | 5864 ft | 236 kts | 275° |
| 2026-04-21 09:39 | 38.90901 | 122.24894 | 5583 ft | 234 kts | 275° |
| 2026-04-21 09:39 | 38.91087 | 122.22823 | 5318 ft | 232 kts | 274° |
| 2026-04-21 09:39 | 38.91265 | 122.20772 | 5034 ft | 231 kts | 274° |
| 2026-04-21 09:40 | 38.91439 | 122.18721 | 4755 ft | 230 kts | 274° |
| 2026-04-21 09:40 | 38.91607 | 122.16706 | 4482 ft | 229 kts | 274° |
| 2026-04-21 09:40 | 38.91776 | 122.14656 | 4208 ft | 227 kts | 273° |
| 2026-04-21 09:40 | 38.91938 | 122.12670 | 3931 ft | 226 kts | 273° |
| 2026-04-21 09:41 | 38.92101 | 122.10650 | 3630 ft | 225 kts | 272° |
| 2026-04-21 09:41 | 38.92269 | 122.08669 | 3364 ft | 225 kts | 273° |
| 2026-04-21 09:41 | 38.92474 | 122.06677 | 3125 ft | 223 kts | 275° |
| 2026-04-21 09:41 | 38.92707 | 122.04733 | 3034 ft | 213 kts | 274° |
| 2026-04-21 09:42 | 38.92885 | 122.02917 | 3017 ft | 201 kts | 271° |
| 2026-04-21 09:42 | 38.92986 | 122.01183 | 2990 ft | 188 kts | 270° |
| 2026-04-21 09:42 | 38.93109 | 121.99539 | 3034 ft | 184 kts | 272° |
| 2026-04-21 09:42 | 38.93257 | 121.97914 | 3017 ft | 175 kts | 271° |
| 2026-04-21 09:43 | 38.93383 | 121.96432 | 3003 ft | 158 kts | 270° |
| 2026-04-21 09:43 | 38.93489 | 121.95081 | 3009 ft | 150 kts | 271° |
| 2026-04-21 09:43 | 38.93588 | 121.93753 | 3000 ft | 150 kts | 270° |
| 2026-04-21 09:43 | 38.93687 | 121.92414 | 3011 ft | 150 kts | 270° |
| 2026-04-21 09:44 | 38.93785 | 121.91071 | 3021 ft | 151 kts | 270° |
| 2026-04-21 09:44 | 38.93883 | 121.89724 | 3018 ft | 153 kts | 270° |
| 2026-04-21 09:44 | 38.93983 | 121.88360 | 3006 ft | 154 kts | 270° |
| 2026-04-21 09:44 | 38.94083 | 121.86986 | 2999 ft | 153 kts | 270° |
| 2026-04-21 09:45 | 38.94182 | 121.85647 | 2995 ft | 151 kts | 270° |
| 2026-04-21 09:45 | 38.94279 | 121.84324 | 2994 ft | 148 kts | 270° |
| 2026-04-21 09:45 | 38.94375 | 121.83015 | 2993 ft | 146 kts | 270° |
| 2026-04-21 09:45 | 38.94471 | 121.81709 | 3003 ft | 147 kts | 270° |
| 2026-04-21 09:46 | 38.94568 | 121.80382 | 3011 ft | 150 kts | 270° |
| 2026-04-21 09:46 | 38.94666 | 121.79049 | 3007 ft | 151 kts | 270° |
| 2026-04-21 09:46 | 38.94766 | 121.77705 | 2993 ft | 150 kts | 270° |
| 2026-04-21 09:46 | 38.94864 | 121.76381 | 3004 ft | 149 kts | 270° |
| 2026-04-21 09:47 | 38.94960 | 121.75101 | 2992 ft | 135 kts | 269° |
| 2026-04-21 09:47 | 38.95045 | 121.73981 | 2919 ft | 121 kts | 269° |
| 2026-04-21 09:47 | 38.95124 | 121.72918 | 2798 ft | 115 kts | 269° |
| 2026-04-21 09:47 | 38.95199 | 121.71887 | 2643 ft | 116 kts | 268° |
| 2026-04-21 09:48 | 38.95276 | 121.70856 | 2486 ft | 117 kts | 268° |
| 2026-04-21 09:48 | 38.95354 | 121.69807 | 2326 ft | 116 kts | 268° |
| 2026-04-21 09:48 | 38.95430 | 121.68788 | 2162 ft | 115 kts | 268° |
| 2026-04-21 09:48 | 38.95506 | 121.67763 | 2012 ft | 115 kts | 268° |
| 2026-04-21 09:49 | 38.95583 | 121.66736 | 1861 ft | 115 kts | 268° |
| 2026-04-21 09:49 | 38.95661 | 121.65706 | 1714 ft | 116 kts | 267° |
| 2026-04-21 09:49 | 38.95738 | 121.64664 | 1545 ft | 117 kts | 268° |
| 2026-04-21 09:49 | 38.95817 | 121.63632 | 1384 ft | 116 kts | 268° |
| 2026-04-21 09:50 | 38.95895 | 121.62576 | 1244 ft | 122 kts | 268° |
| 2026-04-21 09:50 | 38.95923 | 121.62205 | 1177 ft | 124 kts | 268° |
| 2026-04-21 09:50 | 38.96151 | 121.59220 | 724 ft | 129 kts | 271° |
| 2026-04-21 09:51 | 38.96236 | 121.58081 | 571 ft | 130 kts | 272° |
| 2026-04-21 09:51 | 38.96320 | 121.56905 | 386 ft | 132 kts | 273° |
| 2026-04-21 09:51 | 38.96415 | 121.55733 | 205 ft | 129 kts | 273° |
| 2026-04-21 09:51 | 38.96501 | 121.54607 | 116 ft | 117 kts | 272° |
| 2026-04-21 09:52 | 38.96566 | 121.53729 | 115 ft | 77 kts | 275° |
| 2026-04-21 09:52 | 38.96608 | 121.53201 | 115 ft | 44 kts | 275° |
| 2026-04-21 09:52 | 38.96572 | 121.52852 | 112 ft | 35 kts | 249° |
| 2026-04-21 09:52 | 38.96525 | 121.52711 | 112 ft | 13 kts | 246° |
| 2026-04-21 09:53 | 38.96489 | 121.52607 | 113 ft | 11 kts | 245° |
| 2026-04-21 09:53 | 38.96438 | 121.52567 | 114 ft | 9 kts | 191° |
| 2026-04-21 09:53 | 38.96378 | 121.52556 | 114 ft | 9 kts | 186° |
| 2026-04-21 09:53 | 38.96331 | 121.52547 | 113 ft | 5 kts | 203° |
| 2026-04-21 09:54 | 38.96311 | 121.52515 | 114 ft | 5 kts | 255° |
| 2026-04-21 09:54 | 38.96313 | 121.52471 | 112 ft | 5 kts | 277° |
| 2026-04-21 09:54 | 38.96315 | 121.52457 | 115 ft | 0 kts | 276° |